createdAt,value
2023-08-28T00:03:27.343Z,0.60
2023-08-28T00:08:30.239Z,0.90
2023-08-28T00:13:33.126Z,1.10
2023-08-28T00:18:36.230Z,1.10
2023-08-28T00:23:39.052Z,1.40
2023-08-28T00:28:41.737Z,1.70
2023-08-28T00:33:44.412Z,2.00
2023-08-28T00:38:47.101Z,1.90
2023-08-28T00:43:49.824Z,2.00
2023-08-28T00:48:53.045Z,2.00
2023-08-28T00:53:55.777Z,2.20
2023-08-28T00:58:58.879Z,2.00
2023-08-28T01:04:01.582Z,2.00
2023-08-28T01:09:10.617Z,1.90
2023-08-28T01:14:20.376Z,2.00
2023-08-28T01:19:37.138Z,2.00
2023-08-28T01:24:47.059Z,2.40
2023-08-28T01:30:11.157Z,2.60
2023-08-28T01:35:21.766Z,2.20
2023-08-28T01:40:37.818Z,2.30
2023-08-28T01:50:43.638Z,2.20
2023-08-28T01:55:46.320Z,2.00
2023-08-28T02:00:49.179Z,1.70
2023-08-28T02:05:51.885Z,2.10
2023-08-28T02:10:54.759Z,2.20
2023-08-28T02:15:57.792Z,2.30
2023-08-28T02:21:00.771Z,2.20
2023-08-28T02:26:03.699Z,2.20
2023-08-28T02:31:06.729Z,2.00
2023-08-28T02:36:09.714Z,2.40
2023-08-28T02:41:12.451Z,2.20
2023-08-28T02:46:15.260Z,2.30
2023-08-28T02:51:18.015Z,2.30
2023-08-28T02:56:27.434Z,2.30
2023-08-28T03:01:35.800Z,2.40
2023-08-28T03:06:39.142Z,2.30
2023-08-28T03:11:42.369Z,2.20
2023-08-28T03:16:45.209Z,2.20
2023-08-28T03:21:48.034Z,2.60
2023-08-28T03:26:50.954Z,2.20
2023-08-28T03:31:53.712Z,2.20
2023-08-28T03:36:56.926Z,2.00
2023-08-28T03:41:59.646Z,2.20
2023-08-28T03:47:02.345Z,2.70
2023-08-28T03:52:05.639Z,2.40
2023-08-28T03:57:08.614Z,3.20
2023-08-28T04:02:11.297Z,2.70
2023-08-28T04:07:26.854Z,3.20
2023-08-28T04:12:29.912Z,2.70
2023-08-28T04:17:32.998Z,2.60
2023-08-28T04:22:35.786Z,2.70
2023-08-28T04:27:39.813Z,2.80
2023-08-28T04:32:42.756Z,3.10
2023-08-28T04:37:45.504Z,2.90
2023-08-28T04:42:48.305Z,2.90
2023-08-28T04:47:50.980Z,2.90
2023-08-28T04:52:53.780Z,2.70
2023-08-28T04:57:56.568Z,2.70
2023-08-28T05:02:59.385Z,2.50
2023-08-28T05:08:03.286Z,2.40
2023-08-28T05:13:06.600Z,2.30
2023-08-28T05:18:12.925Z,2.60
2023-08-28T05:23:16.044Z,2.70
2023-08-28T05:28:18.754Z,2.40
2023-08-28T05:33:21.508Z,2.80
2023-08-28T05:38:24.685Z,3.00
2023-08-28T05:43:27.449Z,2.50
2023-08-28T05:48:30.193Z,3.30
2023-08-28T05:53:33.698Z,2.90
2023-08-28T05:58:36.525Z,3.60
2023-08-28T06:03:39.292Z,3.20
2023-08-28T06:08:42.113Z,2.70
2023-08-28T06:13:44.938Z,2.90
2023-08-28T06:18:48.111Z,3.80
2023-08-28T06:23:50.870Z,3.30
2023-08-28T06:28:53.750Z,3.40
2023-08-28T06:33:56.684Z,3.60
2023-08-28T06:38:59.393Z,3.50
2023-08-28T06:44:02.151Z,3.80
2023-08-28T06:49:05.717Z,3.20
2023-08-28T06:54:08.435Z,2.80
2023-08-28T06:59:11.564Z,3.00
2023-08-28T07:04:14.467Z,2.60
2023-08-28T07:09:17.476Z,2.70
2023-08-28T07:14:20.206Z,2.90
2023-08-28T07:19:23.132Z,2.30
2023-08-28T07:24:25.857Z,2.60
2023-08-28T07:29:28.616Z,2.70
2023-08-28T07:34:32.951Z,2.60
2023-08-28T07:39:36.127Z,2.90
2023-08-28T07:44:38.894Z,2.40
2023-08-28T07:49:42.942Z,2.40
2023-08-28T07:54:45.803Z,2.40
2023-08-28T07:59:48.550Z,2.70
2023-08-28T08:04:51.662Z,2.20
2023-08-28T08:09:54.349Z,2.20
2023-08-28T08:14:57.523Z,2.60
2023-08-28T08:20:00.313Z,2.60
2023-08-28T08:25:03.367Z,2.50
2023-08-28T08:30:10.218Z,2.80
2023-08-28T08:35:14.953Z,2.70
2023-08-28T08:40:19.959Z,2.80
2023-08-28T08:45:28.954Z,2.60
2023-08-28T08:50:36.853Z,2.80
2023-08-28T08:55:50.685Z,2.80
2023-08-28T09:00:54.437Z,3.00
2023-08-28T09:05:58.231Z,2.90
2023-08-28T09:11:01.894Z,2.70
2023-08-28T09:16:05.456Z,3.30
2023-08-28T09:21:09.264Z,2.40
2023-08-28T09:26:17.425Z,3.10
2023-08-28T09:31:29.530Z,3.10
2023-08-28T09:36:44.590Z,2.70
2023-08-28T09:41:50.125Z,2.40
2023-08-28T09:46:54.703Z,2.70
2023-08-28T09:51:59.811Z,2.50
2023-08-28T09:57:15.393Z,2.80
2023-08-28T10:02:22.781Z,3.00
2023-08-28T10:07:26.943Z,2.90
2023-08-28T10:12:30.831Z,2.90
2023-08-28T10:17:35.742Z,2.90
2023-08-28T10:22:39.726Z,3.10
2023-08-28T10:27:42.955Z,2.80
2023-08-28T10:32:46.180Z,2.80
2023-08-28T10:37:51.329Z,3.00
2023-08-28T10:42:55.856Z,2.80
2023-08-28T10:47:58.855Z,2.70
2023-08-28T10:53:02.013Z,2.80
2023-08-28T10:58:05.323Z,3.00
2023-08-28T11:03:16.633Z,3.00
2023-08-28T11:08:19.644Z,3.10
2023-08-28T11:13:25.126Z,3.20
2023-08-28T11:18:32.238Z,3.00
2023-08-28T11:23:42.834Z,3.10
2023-08-28T11:28:47.291Z,3.10
2023-08-28T11:33:50.964Z,3.50
2023-08-28T11:38:55.943Z,2.80
2023-08-28T11:43:59.059Z,4.00
2023-08-28T11:49:01.919Z,4.70
2023-08-28T11:54:04.818Z,4.40
2023-08-28T11:59:09.264Z,3.60
2023-08-28T12:04:12.164Z,3.60
2023-08-28T12:09:16.073Z,3.20
2023-08-28T12:14:19.207Z,3.70
2023-08-28T12:19:23.128Z,3.60
2023-08-28T12:24:27.330Z,4.10
2023-08-28T12:29:30.573Z,4.40
2023-08-28T12:34:38.342Z,4.20
2023-08-28T12:39:52.340Z,4.60
2023-08-28T12:44:55.313Z,4.60
2023-08-28T12:49:58.421Z,4.70
2023-08-28T12:55:01.248Z,5.00
2023-08-28T13:00:08.442Z,5.50
2023-08-28T13:05:13.034Z,5.50
2023-08-28T13:10:16.007Z,6.40
2023-08-28T13:15:18.842Z,5.80
2023-08-28T13:20:22.048Z,5.90
2023-08-28T13:25:25.589Z,6.00
2023-08-28T13:30:28.690Z,5.80
2023-08-28T13:35:37.271Z,6.00
2023-08-28T13:40:40.183Z,6.00
2023-08-28T13:45:43.281Z,5.60
2023-08-28T13:50:46.707Z,5.50
2023-08-28T13:55:56.286Z,6.10
2023-08-28T14:01:01.210Z,5.60
2023-08-28T14:06:05.605Z,5.70
2023-08-28T14:11:09.387Z,5.50
2023-08-28T14:16:12.155Z,5.90
2023-08-28T14:21:15.472Z,5.90
2023-08-28T14:26:18.575Z,5.60
2023-08-28T14:31:21.747Z,6.80
2023-08-28T14:36:25.309Z,6.00
2023-08-28T14:41:29.626Z,6.50
2023-08-28T14:46:32.658Z,6.10
2023-08-28T14:51:35.989Z,5.80
2023-08-28T14:56:39.594Z,5.70
2023-08-28T15:01:42.799Z,6.40
2023-08-28T15:06:47.282Z,6.50
2023-08-28T15:11:50.362Z,5.90
2023-08-28T15:16:53.946Z,5.60
2023-08-28T15:21:57.173Z,6.00
2023-08-28T15:27:00.366Z,6.20
2023-08-28T15:32:05.179Z,6.70
2023-08-28T15:37:08.485Z,6.60
2023-08-28T15:42:11.647Z,6.20
2023-08-28T15:47:14.889Z,5.80
2023-08-28T15:52:17.966Z,6.00
2023-08-28T15:57:21.512Z,6.30
2023-08-28T16:02:24.729Z,6.90
2023-08-28T16:07:28.231Z,7.00
2023-08-28T16:12:31.686Z,6.60
2023-08-28T16:17:34.765Z,6.40
2023-08-28T16:22:37.979Z,6.10
2023-08-28T16:27:45.282Z,6.90
2023-08-28T16:32:48.591Z,6.40
2023-08-28T16:37:52.438Z,6.50
2023-08-28T16:42:56.498Z,7.00
2023-08-28T16:47:59.728Z,7.70
2023-08-28T16:53:03.157Z,7.10
2023-08-28T16:58:06.576Z,6.30
2023-08-28T17:03:10.050Z,7.20
2023-08-28T17:08:13.730Z,7.10
2023-08-28T17:13:17.040Z,6.10
2023-08-28T17:18:20.334Z,6.80
2023-08-28T17:23:23.678Z,6.70
2023-08-28T17:28:26.857Z,6.00
2023-08-28T17:33:31.751Z,6.50
2023-08-28T17:38:34.826Z,6.50
2023-08-28T17:43:38.066Z,6.70
2023-08-28T17:48:41.180Z,6.70
2023-08-28T17:53:44.337Z,7.50
2023-08-28T17:58:48.950Z,7.60
2023-08-28T18:03:52.317Z,7.20
2023-08-28T18:08:55.528Z,8.10
2023-08-28T18:13:59.226Z,8.70
2023-08-28T18:19:02.610Z,8.20
2023-08-28T18:24:06.593Z,7.90
2023-08-28T18:29:09.988Z,8.30
2023-08-28T18:34:13.231Z,9.00
2023-08-28T18:39:16.684Z,9.60
2023-08-28T18:44:19.963Z,8.80
2023-08-28T18:49:23.204Z,9.20
2023-08-28T18:54:27.141Z,7.80
2023-08-28T18:59:30.669Z,8.40
2023-08-28T19:04:33.970Z,7.30
2023-08-28T19:09:37.263Z,7.10
2023-08-28T19:14:40.651Z,7.40
2023-08-28T19:19:46.666Z,6.90
2023-08-28T19:24:50.581Z,7.50
2023-08-28T19:29:53.807Z,7.10
2023-08-28T19:34:56.969Z,7.20
2023-08-28T19:40:00.626Z,7.20
2023-08-28T19:45:05.907Z,6.70
2023-08-28T19:50:09.529Z,6.60
2023-08-28T19:55:15.862Z,7.50
2023-08-28T20:00:18.742Z,8.50
2023-08-28T20:05:21.973Z,7.30
2023-08-28T20:10:24.963Z,6.20
2023-08-28T20:15:27.810Z,6.30
2023-08-28T20:20:30.920Z,5.80
2023-08-28T20:25:33.824Z,6.80
2023-08-28T20:30:36.756Z,7.40
2023-08-28T20:35:39.833Z,7.20
2023-08-28T20:40:48.714Z,8.00
2023-08-28T20:45:58.371Z,11.10
2023-08-28T20:51:02.805Z,9.20
2023-08-28T20:56:05.712Z,8.00
2023-08-28T21:01:08.692Z,10.50
2023-08-28T21:06:11.679Z,10.80
2023-08-28T21:11:14.793Z,9.00
2023-08-28T21:16:17.583Z,7.10
2023-08-28T21:21:20.713Z,6.90
2023-08-28T21:26:23.576Z,7.00
2023-08-28T21:31:26.382Z,7.90
2023-08-28T21:36:29.258Z,6.40
2023-08-28T21:41:32.128Z,6.50
2023-08-28T21:46:35.701Z,6.30
2023-08-28T21:51:38.507Z,6.00
2023-08-28T21:56:41.394Z,6.70
2023-08-28T22:01:44.172Z,6.30
2023-08-28T22:06:47.374Z,5.90
2023-08-28T22:11:50.771Z,6.40
2023-08-28T22:16:53.810Z,5.80
2023-08-28T22:21:56.756Z,6.10
2023-08-28T22:27:02.940Z,5.60
2023-08-28T22:32:06.378Z,6.00
2023-08-28T22:37:09.502Z,6.30
2023-08-28T22:42:12.318Z,6.40
2023-08-28T22:47:15.270Z,6.60
2023-08-28T22:52:18.175Z,6.30
2023-08-28T22:57:21.184Z,5.60
2023-08-28T23:02:24.334Z,6.40
2023-08-28T23:07:27.171Z,6.30
2023-08-28T23:12:31.212Z,7.40
2023-08-28T23:17:34.867Z,8.20
2023-08-28T23:22:37.868Z,8.80
2023-08-28T23:27:42.405Z,5.50
2023-08-28T23:32:45.324Z,6.70
2023-08-28T23:37:48.576Z,8.60
2023-08-28T23:42:51.479Z,7.80
2023-08-28T23:47:54.483Z,7.90
2023-08-28T23:52:57.869Z,8.80
2023-08-28T23:58:00.994Z,8.90
